Relevés horaires Bierset (Belgique)


Relevés horaires à Bierset - Jeudi 11 Juin 2020
Heure UTC1 Température [°C] Vent [km/h] Hum. [%] Pres.4 [hPa] Visi. [Km] Nébu. [octa] Préc.5 [mm] Cond.
2m. Res. Ros. Dir.2 Vit. Moy. Raf.3
23:00 15.2 15.2 10.6 E 5.6 5.6 9.3 74 1009.3(0.2/3h) 30 1/8 -- --
22:00 16.2 16.2 10.5 E 5.6 5.6 7.4 69 1009.4(0.9/3h) 30 1/8 -- --
21:00 16.5 16.5 9.9 E 5.6 13.0 18.5 65 1009.4(0.8/3h) 30 1/8 -- --
20:00 16.0 16.0 11.4 NE 3.7 9.3 13.0 74 1009.1(0.3/3h) 30 1/8 -- --
19:00 17.8 17.8 11.6 NE 9.3 13.0 18.5 67 1008.3(-0.4/3h) 30 2/8 -- --
18:00 18.6 18.6 11.6 NE 11.1 13.0 18.5 64 1008.4(-0.5/3h) 30 2/8 0/12h
--
17:00 17.8 17.8 11.6 NE 9.3 11.1 16.7 67 1008.6(-0.6/3h) 30 5/8 -- --
16:00 18.3 18.3 11.2 NNE 7.4 9.3 14.8 63 1008.8(-0.8/3h) 30 7/8 -- --
15:00 18.1 18.1 11.3 NNE 9.3 9.3 14.8 64 1008.9(-0.8/3h) 30 7/8 -- --
14:00 20.8 20.8 8.9 E 5.6 7.4 14.8 46 1009(-1.1/3h) 30 5/8 -- --
13:00 20.5 20.5 9.0 NE 7.4 9.3 14.8 48 1009.5(-0.8/3h) 30 4/8 -- --
12:00 18.2 18.2 9.5 NE 9.3 9.3 14.8 57 1009.7(-1.1/3h) 25 7/8 0/6h
--
11:00 17.5 17.5 9.9 NNO 5.6 5.6 9.3 61 1010.3(-0.8/3h) 15 7/8 -- --
10:00 16.8 16.8 11.2 NNO 1.9 3.7 11.1 70 1010.6(-0.6/3h) 15 7/8 -- --
09:00 16.5 16.5 12.3 N 3.7 3.7 11.1 76 1011(-0.2/3h) 10 7/8 -- --
08:00 14.7 14.7 12.5 N 1.9 3.7 9.3 87 1011.4(0.2/3h) 6 8/8 -- --
07:00 14.5 14.5 12.2 NNO 0.0 1.9 11.1 86 1011.3(0.0/3h) 6 8/8 -- --
06:00 13.9 13.9 11.8 S 1.9 5.6 14.8 87 1011.4(-0.3/3h) 6 7/8 0/12h
--
05:00 13.4 13.4 11.7 NE 3.7 3.7 9.3 89 1011.2(-0.8/3h) 6 7/8 -- --
04:00 13.4 13.4 11.4 NE 3.7 5.6 13.0 88 1011.5(-0.8/3h) 7 7/8 -- --
03:00 13.8 13.8 11.4 E 3.7 5.6 14.8 85 1011.7(-1.3/3h) 10 7/8 -- --
02:00 13.7 13.7 11.3 ENE 5.6 5.6 13.0 85 1012(-1.5/3h) 10 7/8 -- --
01:00 13.8 13.8 11.8 NE 5.6 5.6 7.4 88 1012.3(-1.5/3h) 8 7/8 -- --
00:00 13.2 13.2 12.2 ENE 3.7 7.4 11.1 94 1013(-1.0/3h) 6 7/8 0/6h
0.2/24h
--

1 Coordinated Universal Time. Actuellement il est 18:00 locale et 16:00 UTC.

2 Le vent souffle depuis la direction indiquée vers la direction oposée.

3 Les rafales max. sont disponible 40 min après l'heure du relevé.

4 Pour les stations d'altitude (plus de 600m) le géopotentiel du niveau le plus proche de la pression obligatoire est indiqué.

5 Les stations disposant d'un diffuseur peuvent indiquer "trace". Cela signifie que des précipitations ont touchés le sol mais que la quantité est inférieure à 0.1 mm.

Récapitulatif de la journée
Température [°C] Vent [km/h] Ensoleillement4 [h] Precipitations totale5 [mm] Pression [Hpa]
Min1 Max.2 Moy.3 Max. Min Max.
12.9 20.9 7.2 18.5 0 h 0 min 0 1008.3 1013.0

1 Température minimale relevée entre 18:00 UTC la veille et 18:00 UTC le jour donné.

2 Température maximale relevée entre 06:00 UTC le jour donné et 06:00 UTC le lendemain.

3 Vent moyen de la journée basé sur les relevés horaires.

4 Ensoleillement en heures relevé entre 06:00 UTC la veille et 06:00 UTC le jour donné.

5 Précipitations totales tombées entre 06:00 UTC la jour donné et 06:00 UTC le lendemain.

Graphiques horaires